New Eagle, Pennsylvania
Current Conditions -  °F | °C
As of 2:53 PM on Tuesday 25 Nov 2014 (Local Time) from KAGC Reporting Station
Few Clouds Few Clouds  
Wind Chill: 42°   Ceiling: Unl
Heat Index: 48°   Visibility: 10mi
Dew Point: 24°   Wind: 14mph
Humidity: 39%   Direction: 260°W
Pressure: 30.01"   Gusts: NA
Location:  40.21°N, 79.95°W
Report Text: KAGC 251953Z 26012KT 10SM FEW049 09/M04 A3001 RMK AO2 SLP171 T00891044
Loading
Personal Weather Stations






























Interactive Weather Map New forecast layout! Learn more

10-Day Weather Forecast

Advertisements
Track Severe Weather on mobile